createdAt,value
2019-04-11T00:02:09.776Z,84.00
2019-04-11T00:04:44.374Z,84.10
2019-04-11T00:07:18.832Z,84.30
2019-04-11T00:09:53.325Z,83.40
2019-04-11T00:12:28.461Z,84.20
2019-04-11T00:15:04.337Z,84.20
2019-04-11T00:17:41.796Z,84.10
2019-04-11T00:20:16.311Z,84.10
2019-04-11T00:22:52.632Z,84.00
2019-04-11T00:25:27.468Z,83.70
2019-04-11T00:28:03.571Z,83.20
2019-04-11T00:30:40.016Z,83.00
2019-04-11T00:33:16.119Z,82.50
2019-04-11T00:35:50.837Z,82.30
2019-04-11T00:38:25.681Z,82.00
2019-04-11T00:41:01.664Z,81.70
2019-04-11T00:43:41.600Z,81.10
2019-04-11T00:46:14.102Z,80.80
2019-04-11T00:48:50.157Z,80.20
2019-04-11T00:51:25.586Z,79.90
2019-04-11T00:54:00.885Z,79.70
2019-04-11T00:56:36.555Z,79.60
2019-04-11T00:59:11.376Z,79.30
2019-04-11T01:01:45.788Z,78.90
2019-04-11T01:04:20.486Z,78.80
2019-04-11T01:06:55.381Z,78.40
2019-04-11T01:09:30.645Z,77.90
2019-04-11T01:12:04.805Z,77.50
2019-04-11T01:14:40.561Z,76.90
2019-04-11T01:17:15.541Z,76.70
2019-04-11T01:19:57.350Z,76.50
2019-04-11T01:22:32.030Z,76.30
2019-04-11T01:25:06.746Z,76.00
2019-04-11T01:27:41.192Z,76.50
2019-04-11T01:30:19.142Z,75.20
2019-04-11T01:32:54.876Z,74.70
2019-04-11T01:35:31.054Z,74.30
2019-04-11T01:38:06.297Z,74.10
2019-04-11T01:40:40.641Z,73.70
2019-04-11T01:43:15.661Z,73.80
2019-04-11T01:45:50.250Z,73.90
2019-04-11T01:48:41.734Z,74.00
2019-04-11T01:51:16.130Z,74.10
2019-04-11T01:53:51.046Z,74.20
2019-04-11T01:56:27.628Z,73.60
2019-04-11T01:59:02.768Z,73.30
2019-04-11T02:01:47.259Z,73.20
2019-04-11T02:04:48.810Z,73.50
2019-04-11T02:07:24.667Z,72.40
2019-04-11T02:10:00.156Z,71.90
2019-04-11T02:12:35.289Z,71.30
2019-04-11T02:15:10.619Z,71.10
2019-04-11T02:17:48.722Z,70.80
2019-04-11T02:20:23.310Z,70.50
2019-04-11T02:23:09.534Z,70.30
2019-04-11T02:26:05.097Z,69.70
2019-04-11T02:28:39.797Z,69.70
2019-04-11T02:31:14.959Z,68.80
2019-04-11T02:33:51.157Z,68.10
2019-04-11T02:36:27.334Z,68.00
2019-04-11T02:39:07.370Z,67.30
2019-04-11T02:41:42.166Z,66.80
2019-04-11T02:44:33.721Z,66.60
2019-04-11T02:47:00.431Z,66.10
2019-04-11T02:49:28.434Z,65.80
2019-04-11T02:52:03.398Z,66.00
2019-04-11T02:54:38.866Z,66.40
2019-04-11T02:57:14.097Z,66.10
2019-04-11T02:59:49.072Z,65.30
2019-04-11T03:02:26.607Z,65.20
2019-04-11T03:05:04.943Z,65.20
2019-04-11T03:07:40.103Z,65.70
2019-04-11T03:10:16.454Z,65.20
2019-04-11T03:12:52.529Z,65.20
2019-04-11T03:15:39.997Z,65.60
2019-04-11T03:18:06.637Z,65.30
2019-04-11T03:20:45.660Z,65.10
2019-04-11T03:23:18.521Z,64.50
2019-04-11T03:25:52.462Z,64.30
2019-04-11T03:28:30.482Z,64.20
2019-04-11T03:31:37.729Z,64.00
2019-04-11T03:39:15.336Z,64.30
2019-04-11T03:41:51.890Z,64.30
2019-04-11T03:44:16.945Z,64.30
2019-04-11T03:47:02.438Z,64.40
2019-04-11T03:49:31.655Z,64.40
2019-04-11T03:51:59.128Z,64.10
2019-04-11T03:54:34.131Z,64.50
2019-04-11T03:57:09.739Z,64.70
2019-04-11T03:59:43.887Z,64.80
2019-04-11T04:02:20.371Z,64.40
2019-04-11T04:04:57.067Z,64.70
2019-04-11T04:07:32.101Z,64.10
2019-04-11T04:10:11.608Z,64.30
2019-04-11T04:12:45.336Z,64.20
2019-04-11T04:16:00.018Z,64.40
2019-04-11T04:18:48.411Z,64.10
2019-04-11T04:21:51.109Z,64.20
2019-04-11T04:24:39.829Z,63.90
2019-04-11T04:27:13.176Z,64.00
2019-04-11T04:29:56.973Z,63.80
2019-04-11T04:32:28.205Z,63.30
2019-04-11T04:35:10.736Z,63.30
2019-04-11T04:37:43.327Z,62.80
2019-04-11T04:40:36.105Z,62.30
2019-04-11T04:42:58.201Z,62.30
2019-04-11T04:45:49.729Z,61.90
2019-04-11T04:48:12.323Z,62.40
2019-04-11T04:50:44.925Z,62.10
2019-04-11T04:53:23.415Z,62.10
2019-04-11T04:55:57.594Z,62.00
2019-04-11T04:58:33.813Z,61.60
2019-04-11T05:01:08.302Z,60.80
2019-04-11T05:03:44.537Z,60.50
2019-04-11T05:06:20.491Z,60.60
2019-04-11T05:08:55.998Z,60.30
2019-04-11T05:11:30.790Z,60.60
2019-04-11T05:14:07.234Z,60.50
2019-04-11T05:16:44.022Z,60.30
2019-04-11T05:19:22.029Z,61.30
2019-04-11T05:21:56.007Z,60.30
2019-04-11T05:24:30.502Z,60.50
2019-04-11T05:27:06.276Z,61.00
2019-04-11T05:29:41.744Z,60.60
2019-04-11T05:32:16.455Z,60.70
2019-04-11T05:34:51.222Z,60.40
2019-04-11T05:37:26.960Z,60.20
2019-04-11T05:40:02.974Z,59.70
2019-04-11T05:42:39.559Z,60.10
2019-04-11T05:45:19.491Z,60.00
2019-04-11T05:47:53.532Z,60.40
2019-04-11T05:50:36.014Z,59.90
2019-04-11T05:53:10.650Z,60.00
2019-04-11T05:55:47.135Z,60.00
2019-04-11T05:58:21.252Z,59.70
2019-04-11T06:01:11.814Z,59.40
2019-04-11T06:03:48.743Z,59.10
2019-04-11T06:06:42.788Z,59.10
2019-04-11T06:09:23.639Z,59.20
2019-04-11T06:12:17.133Z,59.00
2019-04-11T06:15:13.543Z,58.70
2019-04-11T06:17:48.622Z,58.40
2019-04-11T06:20:51.886Z,58.10
2019-04-11T06:24:03.561Z,57.90
2019-04-11T06:26:56.858Z,57.90
2019-04-11T06:29:53.352Z,57.90
2019-04-11T06:32:49.345Z,57.90
2019-04-11T06:35:46.255Z,57.80
2019-04-11T06:38:38.606Z,58.50
2019-04-11T06:41:32.772Z,57.90
2019-04-11T06:44:25.904Z,57.40
2019-04-11T06:47:18.822Z,58.00
2019-04-11T06:50:25.010Z,57.30
2019-04-11T06:53:00.317Z,57.00
2019-04-11T06:56:05.291Z,56.50
2019-04-11T06:58:47.826Z,56.10
2019-04-11T07:01:28.560Z,56.60
2019-04-11T07:04:30.370Z,56.90
2019-04-11T07:07:07.121Z,56.40
2019-04-11T07:09:49.241Z,56.40
2019-04-11T07:12:31.424Z,56.50
2019-04-11T07:15:29.424Z,56.60
2019-04-11T07:18:20.916Z,56.40
2019-04-11T07:21:08.393Z,56.60
2019-04-11T07:24:00.163Z,56.60
2019-04-11T07:26:43.901Z,56.40
2019-04-11T07:29:35.202Z,56.50
2019-04-11T07:32:20.354Z,56.90
2019-04-11T07:35:29.229Z,56.50
2019-04-11T07:38:04.989Z,56.30
2019-04-11T07:40:58.893Z,56.30
2019-04-11T07:43:36.622Z,56.10
2019-04-11T07:46:25.612Z,56.40
2019-04-11T07:49:03.839Z,56.40
2019-04-11T07:51:43.326Z,56.40
2019-04-11T07:54:20.293Z,56.40
2019-04-11T07:57:05.854Z,56.00
2019-04-11T08:00:17.297Z,55.70
2019-04-11T08:03:17.303Z,55.80
2019-04-11T08:06:20.168Z,55.70
2019-04-11T08:09:11.184Z,55.60
2019-04-11T08:12:06.605Z,55.40
2019-04-11T08:14:59.258Z,55.60
2019-04-11T08:17:42.318Z,55.60
2019-04-11T08:20:33.337Z,55.60
2019-04-11T08:23:11.994Z,55.50
2019-04-11T08:26:20.214Z,55.50
2019-04-11T08:29:05.400Z,55.50
2019-04-11T08:32:09.620Z,55.70
2019-04-11T08:34:55.253Z,55.60
2019-04-11T08:37:41.637Z,55.90
2019-04-11T08:40:17.710Z,55.80
2019-04-11T08:43:07.687Z,55.80
2019-04-11T08:45:48.907Z,55.70
2019-04-11T08:48:24.593Z,55.70
2019-04-11T08:51:03.309Z,55.80
2019-04-11T08:54:02.018Z,55.90
2019-04-11T08:56:36.837Z,55.80
2019-04-11T08:59:35.825Z,55.80
2019-04-11T09:02:11.356Z,55.80
2019-04-11T09:05:20.411Z,55.60
2019-04-11T09:08:05.839Z,55.90
2019-04-11T09:11:10.662Z,56.10
2019-04-11T09:14:20.078Z,56.40
2019-04-11T09:17:16.347Z,56.40
2019-04-11T09:20:08.006Z,56.60
2019-04-11T09:23:09.662Z,56.70
2019-04-11T09:26:01.584Z,56.70
2019-04-11T09:28:39.738Z,56.80
2019-04-11T09:31:43.741Z,57.70
2019-04-11T09:34:46.053Z,56.10
2019-04-11T09:37:37.894Z,57.00
2019-04-11T09:40:29.902Z,57.00
2019-04-11T09:43:20.516Z,57.10
2019-04-11T09:46:14.320Z,57.20
2019-04-11T09:49:24.032Z,57.30
2019-04-11T09:52:05.728Z,57.40
2019-04-11T09:54:57.066Z,57.80
2019-04-11T09:57:41.955Z,57.60
2019-04-11T10:00:36.681Z,57.60
2019-04-11T10:03:29.795Z,57.80
2019-04-11T10:06:28.758Z,57.80
2019-04-11T10:09:05.783Z,57.90
2019-04-11T10:11:48.510Z,58.00
2019-04-11T10:14:23.710Z,57.80
2019-04-11T10:17:16.936Z,57.90
2019-04-11T10:19:54.486Z,58.70
2019-04-11T10:22:47.922Z,58.00
2019-04-11T10:25:41.098Z,58.00
2019-04-11T10:28:33.790Z,58.60
2019-04-11T10:31:10.622Z,58.30
2019-04-11T10:33:53.195Z,58.60
2019-04-11T10:36:29.948Z,59.30
2019-04-11T10:39:24.981Z,58.70
2019-04-11T10:42:12.520Z,58.90
2019-04-11T10:45:04.513Z,58.90
2019-04-11T10:47:39.232Z,58.80
2019-04-11T10:50:25.712Z,58.80
2019-04-11T10:53:11.300Z,58.90
2019-04-11T10:56:10.705Z,58.90
2019-04-11T10:58:49.093Z,59.00
2019-04-11T11:02:00.287Z,59.20
2019-04-11T11:04:41.077Z,59.30
2019-04-11T11:07:18.616Z,59.40
2019-04-11T11:10:07.165Z,59.60
2019-04-11T11:12:59.396Z,60.40
2019-04-11T11:15:37.900Z,60.10
2019-04-11T11:19:15.333Z,60.20
2019-04-11T11:21:28.032Z,60.40
2019-04-11T11:24:40.210Z,60.70
2019-04-11T11:27:13.793Z,61.10
2019-04-11T11:30:06.488Z,61.20
2019-04-11T11:32:45.739Z,61.60
2019-04-11T11:35:39.076Z,61.90
2019-04-11T11:38:21.998Z,62.60
2019-04-11T11:41:14.251Z,62.30
2019-04-11T11:43:49.792Z,62.60
2019-04-11T11:46:50.061Z,62.70
2019-04-11T11:49:41.485Z,62.90
2019-04-11T11:52:39.284Z,63.20
2019-04-11T11:55:18.512Z,63.50
2019-04-11T11:58:09.033Z,63.70
2019-04-11T12:00:45.790Z,64.10
2019-04-11T12:03:37.230Z,64.40
2019-04-11T12:06:12.765Z,64.80
2019-04-11T12:09:08.240Z,64.90
2019-04-11T12:11:44.653Z,65.20
2019-04-11T12:14:37.247Z,65.40
2019-04-11T12:17:29.297Z,65.70
2019-04-11T12:20:25.324Z,65.80
2019-04-11T12:23:01.193Z,66.00
2019-04-11T12:25:47.341Z,66.20
2019-04-11T12:28:54.095Z,66.50
2019-04-11T12:31:32.170Z,66.70
2019-04-11T12:34:24.073Z,66.70
2019-04-11T12:36:58.645Z,67.90
2019-04-11T12:39:49.376Z,67.10
2019-04-11T12:42:27.388Z,67.30
2019-04-11T12:45:19.455Z,67.30
2019-04-11T12:47:57.060Z,67.50
2019-04-11T12:50:47.254Z,67.60
2019-04-11T12:53:23.352Z,67.80
2019-04-11T12:56:28.116Z,68.00
2019-04-11T12:59:06.584Z,68.00
2019-04-11T13:02:05.560Z,67.90
2019-04-11T13:04:45.022Z,68.80
2019-04-11T13:07:37.286Z,68.00
2019-04-11T13:10:25.188Z,68.10
2019-04-11T13:13:20.886Z,68.10
2019-04-11T13:16:13.872Z,68.10
2019-04-11T13:19:11.194Z,68.30
2019-04-11T13:22:06.156Z,68.30
2019-04-11T13:24:57.992Z,68.30
2019-04-11T13:27:53.634Z,68.40
2019-04-11T13:30:48.375Z,68.60
2019-04-11T13:33:25.612Z,68.60
2019-04-11T13:36:20.871Z,68.60
2019-04-11T13:38:55.424Z,69.10
2019-04-11T13:41:45.983Z,68.80
2019-04-11T13:44:27.062Z,69.20
2019-04-11T13:47:18.374Z,69.00
2019-04-11T13:49:55.145Z,69.20
2019-04-11T13:52:47.575Z,69.50
2019-04-11T13:55:24.217Z,69.70
2019-04-11T13:58:17.884Z,69.70
2019-04-11T14:00:56.107Z,69.80
2019-04-11T14:03:48.294Z,69.90
2019-04-11T14:06:31.546Z,70.20
2019-04-11T14:09:23.668Z,70.10
2019-04-11T14:12:05.066Z,70.20
2019-04-11T14:14:43.392Z,70.30
2019-04-11T14:17:33.923Z,70.30
2019-04-11T14:20:36.933Z,70.30
2019-04-11T14:23:36.210Z,70.20
2019-04-11T14:26:36.565Z,70.30
2019-04-11T14:29:29.744Z,70.30
2019-04-11T14:32:23.618Z,70.30
2019-04-11T14:35:28.105Z,70.50
2019-04-11T14:38:13.626Z,70.50
2019-04-11T14:41:23.110Z,70.50
2019-04-11T14:44:01.109Z,70.60
2019-04-11T14:47:01.263Z,70.60
2019-04-11T14:49:35.283Z,70.80
2019-04-11T14:52:27.891Z,70.80
2019-04-11T14:55:03.960Z,71.00
2019-04-11T14:57:54.411Z,70.80
2019-04-11T15:00:32.915Z,71.00
2019-04-11T15:03:30.538Z,71.00
2019-04-11T15:06:14.796Z,71.10
2019-04-11T15:09:16.984Z,71.20
2019-04-11T15:11:59.960Z,71.40
2019-04-11T15:14:59.005Z,71.40
2019-04-11T15:17:39.131Z,71.40
2019-04-11T15:20:54.218Z,71.50
2019-04-11T15:23:41.651Z,71.60
2019-04-11T15:26:38.922Z,71.60
2019-04-11T15:29:19.835Z,71.70
2019-04-11T15:32:12.572Z,71.70
2019-04-11T15:34:58.668Z,71.90
2019-04-11T15:37:53.309Z,71.80
2019-04-11T15:40:36.914Z,71.80
2019-04-11T15:43:42.248Z,71.80
2019-04-11T15:46:32.343Z,71.70
2019-04-11T15:49:36.969Z,71.70
2019-04-11T15:52:16.576Z,71.90
2019-04-11T15:55:07.760Z,72.00
2019-04-11T15:58:06.674Z,71.90
2019-04-11T16:00:57.156Z,72.10
2019-04-11T16:03:31.299Z,72.10
2019-04-11T16:06:23.949Z,72.00
2019-04-11T16:09:01.374Z,72.30
2019-04-11T16:11:55.280Z,73.00
2019-04-11T16:14:31.571Z,72.40
2019-04-11T16:17:38.318Z,72.60
2019-04-11T16:20:20.325Z,72.90
2019-04-11T16:23:14.854Z,72.60
2019-04-11T16:25:57.175Z,72.80
2019-04-11T16:28:49.279Z,72.80
2019-04-11T16:31:27.804Z,72.90
2019-04-11T16:34:15.918Z,72.70
2019-04-11T16:36:57.224Z,72.90
2019-04-11T16:40:05.853Z,73.10
2019-04-11T16:42:48.521Z,73.00
2019-04-11T16:45:40.924Z,73.00
2019-04-11T16:48:15.391Z,73.00
2019-04-11T16:50:51.587Z,73.30
2019-04-11T16:53:26.705Z,73.40
2019-04-11T16:56:01.080Z,73.60
2019-04-11T16:58:35.313Z,73.60
2019-04-11T17:01:10.596Z,73.90
2019-04-11T17:03:45.269Z,74.00
2019-04-11T17:06:50.470Z,74.00
2019-04-11T17:09:49.495Z,74.00
2019-04-11T17:12:26.312Z,74.00
2019-04-11T17:15:01.107Z,74.00
2019-04-11T17:17:36.252Z,74.10
2019-04-11T17:20:10.672Z,74.40
2019-04-11T17:22:48.417Z,74.40
2019-04-11T17:25:21.795Z,74.40
2019-04-11T17:27:55.768Z,74.50
2019-04-11T17:30:29.829Z,74.60
2019-04-11T17:33:04.263Z,74.80
2019-04-11T17:35:40.692Z,74.80
2019-04-11T17:38:15.080Z,75.00
2019-04-11T17:40:49.242Z,75.10
2019-04-11T17:43:23.710Z,75.30
2019-04-11T17:45:57.862Z,75.30
2019-04-11T17:48:32.413Z,75.40
2019-04-11T17:51:09.502Z,75.40
2019-04-11T17:53:43.302Z,76.40
2019-04-11T17:56:17.501Z,75.50
2019-04-11T17:58:52.174Z,75.60
2019-04-11T18:01:26.061Z,75.60
2019-04-11T18:04:00.462Z,75.70
2019-04-11T18:06:34.972Z,75.80
2019-04-11T18:09:12.207Z,75.80
2019-04-11T18:11:46.875Z,75.80
2019-04-11T18:14:21.354Z,75.80
2019-04-11T18:17:01.578Z,75.90
2019-04-11T18:19:36.226Z,76.00
2019-04-11T18:22:13.396Z,76.00
2019-04-11T18:24:49.798Z,76.00
2019-04-11T18:27:22.390Z,76.40
2019-04-11T18:29:56.126Z,76.40
2019-04-11T18:32:30.308Z,76.50
2019-04-11T18:35:05.262Z,76.60
2019-04-11T18:37:39.733Z,76.60
2019-04-11T18:40:14.116Z,76.70
2019-04-11T18:42:48.729Z,76.90
2019-04-11T18:45:23.561Z,77.00
2019-04-11T18:47:59.328Z,76.90
2019-04-11T18:50:33.610Z,77.10
2019-04-11T18:53:08.064Z,77.20
2019-04-11T18:55:42.779Z,77.30
2019-04-11T18:58:16.926Z,77.40
2019-04-11T19:00:51.538Z,77.50
2019-04-11T19:03:35.679Z,77.40
2019-04-11T19:06:02.262Z,77.60
2019-04-11T19:08:36.792Z,77.60
2019-04-11T19:11:15.413Z,77.60
2019-04-11T19:13:48.658Z,77.70
2019-04-11T19:16:23.158Z,77.70
2019-04-11T19:18:57.744Z,77.90
2019-04-11T19:21:33.569Z,77.90
2019-04-11T19:24:09.778Z,78.10
2019-04-11T19:26:46.088Z,78.00
2019-04-11T19:29:19.734Z,77.90
2019-04-11T19:31:54.477Z,78.00
2019-04-11T19:34:28.802Z,78.00
2019-04-11T19:37:03.848Z,78.10
2019-04-11T19:39:38.490Z,78.10
2019-04-11T19:42:13.210Z,78.20
2019-04-11T19:44:49.429Z,78.20
2019-04-11T19:47:23.197Z,78.20
2019-04-11T19:49:58.830Z,78.20
2019-04-11T19:52:45.046Z,78.30
2019-04-11T19:55:35.921Z,78.50
2019-04-11T19:58:10.340Z,78.50
2019-04-11T20:00:47.227Z,78.50
2019-04-11T20:03:21.872Z,78.60
2019-04-11T20:05:56.563Z,78.50
2019-04-11T20:08:31.458Z,78.50
2019-04-11T20:11:05.687Z,78.60
2019-04-11T20:13:40.132Z,78.70
2019-04-11T20:16:14.890Z,78.80
2019-04-11T20:18:51.245Z,78.90
2019-04-11T20:21:24.781Z,78.90
2019-04-11T20:23:59.161Z,79.00
2019-04-11T20:26:33.725Z,78.90
2019-04-11T20:29:09.569Z,78.80
2019-04-11T20:31:43.983Z,78.90
2019-04-11T20:34:26.884Z,79.00
2019-04-11T20:36:53.471Z,79.10
2019-04-11T20:39:28.568Z,79.20
2019-04-11T20:42:02.683Z,79.30
2019-04-11T20:44:37.160Z,79.40
2019-04-11T20:47:11.883Z,79.60
2019-04-11T20:49:52.663Z,79.70
2019-04-11T20:52:27.243Z,79.70
2019-04-11T20:55:01.479Z,79.80
2019-04-11T20:57:36.273Z,79.70
2019-04-11T21:00:12.493Z,79.70
2019-04-11T21:02:46.698Z,79.80
2019-04-11T21:05:21.208Z,79.80
2019-04-11T21:07:56.698Z,79.90
2019-04-11T21:10:31.940Z,80.10
2019-04-11T21:13:07.709Z,80.30
2019-04-11T21:15:43.007Z,80.30
2019-04-11T21:18:18.295Z,80.30
2019-04-11T21:20:55.097Z,80.50
2019-04-11T21:23:30.228Z,80.60
2019-04-11T21:26:04.651Z,80.60
2019-04-11T21:28:38.805Z,81.10
2019-04-11T21:31:13.074Z,80.90
2019-04-11T21:33:48.319Z,80.90
2019-04-11T21:36:22.702Z,81.00
2019-04-11T21:38:56.957Z,80.90
2019-04-11T21:41:31.585Z,81.00
2019-04-11T21:44:06.937Z,80.90
2019-04-11T21:46:41.953Z,80.90
2019-04-11T21:49:17.015Z,80.80
2019-04-11T21:51:52.643Z,80.90
2019-04-11T21:54:27.237Z,80.70
2019-04-11T21:57:01.774Z,80.70
2019-04-11T21:59:35.966Z,80.80
2019-04-11T22:02:10.354Z,80.90
2019-04-11T22:04:44.679Z,80.90
2019-04-11T22:07:19.371Z,80.90
2019-04-11T22:09:53.817Z,80.90
2019-04-11T22:12:28.465Z,80.90
2019-04-11T22:15:02.816Z,80.80
2019-04-11T22:17:37.301Z,80.80
2019-04-11T22:20:14.068Z,80.90
2019-04-11T22:22:47.456Z,80.90
2019-04-11T22:25:22.073Z,80.90
2019-04-11T22:27:56.390Z,80.90
2019-04-11T22:30:31.431Z,81.00
2019-04-11T22:33:31.360Z,81.90
2019-04-11T22:36:06.018Z,80.90
2019-04-11T22:38:40.479Z,80.90
2019-04-11T22:41:16.186Z,81.00
2019-04-11T22:43:50.885Z,80.80
2019-04-11T22:46:25.262Z,80.90
2019-04-11T22:49:01.499Z,80.80
2019-04-11T22:51:35.767Z,80.80
2019-04-11T22:54:12.886Z,80.90
2019-04-11T22:56:46.454Z,80.90
2019-04-11T22:59:20.679Z,80.90
2019-04-11T23:01:56.429Z,81.00
2019-04-11T23:04:31.097Z,81.10
2019-04-11T23:07:05.538Z,81.30
2019-04-11T23:09:39.965Z,81.30
2019-04-11T23:12:15.238Z,81.30
2019-04-11T23:14:51.108Z,81.20
2019-04-11T23:17:25.021Z,81.30
2019-04-11T23:19:59.405Z,81.40
2019-04-11T23:22:33.958Z,81.40
2019-04-11T23:25:08.783Z,81.50
2019-04-11T23:27:43.039Z,81.60
2019-04-11T23:30:18.332Z,81.60
2019-04-11T23:32:54.267Z,81.70
2019-04-11T23:35:28.814Z,81.70
2019-04-11T23:38:02.934Z,81.60
2019-04-11T23:40:37.582Z,81.60
2019-04-11T23:43:12.171Z,82.70
2019-04-11T23:45:48.858Z,82.00
2019-04-11T23:48:24.089Z,82.00
2019-04-11T23:50:58.833Z,82.10
2019-04-11T23:53:32.873Z,82.30
2019-04-11T23:56:07.816Z,82.50
2019-04-11T23:58:42.200Z,82.60
